Time;durP1;ratioP1;P1;durP2;ratioP2;P2;SDS_P1;SDS_P2;PMS_P1;PMS_P2;Temp;Humidity;BMP_temperature;BMP_pressure;BME280_temperature;BME280_humidity;BME280_pressure;Samples;Min_cycle;Max_cycle;Signal;HPM_P1;HPM_P2
2023/11/08 06:47:43;;;;;;;5.30;1.48;;;;;;;4.29;100.00;96776.84;2086962;28;20565;-64
2023/11/08 06:51:41;;;;;;;8.63;1.35;;;;;;;4.90;97.95;96763.63;2077795;28;20576;-63
2023/11/08 06:54:02;;;;;;;11.43;1.45;;;;;;;5.51;94.53;96774.41;2083513;28;20560;-70
2023/11/08 06:55:07;;;;;;;6.88;1.30;;;;;;;6.01;92.12;96763.78;2089990;28;20204;-70
2023/11/08 06:56:23;;;;;;;4.43;1.60;;;;;;;6.44;90.80;96774.81;2081363;28;20242;-64
2023/11/08 06:57:24;;;;;;;6.28;1.27;;;;;;;6.73;89.32;96777.50;2071272;28;20199;-64
2023/11/08 06:58:30;;;;;;;3.17;1.15;;;;;;;7.15;86.99;96785.00;2074206;28;20263;-64
2023/11/08 06:59:32;;;;;;;3.05;1.00;;;;;;;7.48;85.73;96779.72;2075316;28;20234;-64
2023/11/08 07:00:35;;;;;;;5.15;1.17;;;;;;;7.83;83.50;96773.44;2074957;28;20200;-65
2023/11/08 07:01:37;;;;;;;6.03;1.35;;;;;;;7.81;82.28;96780.41;2074232;28;20256;-65
2023/11/08 07:02:38;;;;;;;5.57;1.10;;;;;;;7.99;82.29;96785.94;2072501;28;20211;-65
2023/11/08 07:03:40;;;;;;;3.70;1.48;;;;;;;8.38;81.08;96785.53;2071114;28;20193;-64
2023/11/08 07:04:42;;;;;;;4.78;1.02;;;;;;;8.64;78.79;96779.44;2071416;28;20218;-65
2023/11/08 07:05:43;;;;;;;3.85;1.20;;;;;;;8.73;78.86;96790.44;2072732;28;20192;-65
2023/11/08 07:06:45;;;;;;;7.28;1.33;;;;;;;8.75;77.91;96786.88;2071963;28;20229;-64
2023/11/08 07:07:47;;;;;;;7.32;1.08;;;;;;;8.57;78.57;96788.38;2074495;28;20652;-64
2023/11/08 07:08:48;;;;;;;3.63;1.02;;;;;;;9.11;77.76;96781.25;2074365;28;20288;-65
2023/11/08 07:09:49;;;;;;;3.35;1.20;;;;;;;9.51;75.33;96772.84;2075093;28;20278;-64
2023/11/08 07:10:51;;;;;;;6.80;1.25;;;;;;;8.96;76.68;96785.28;2071696;28;20278;-64
2023/11/08 07:11:52;;;;;;;3.55;1.20;;;;;;;9.65;75.60;96783.63;2074757;28;20196;-65
2023/11/08 07:12:55;;;;;;;5.32;1.30;;;;;;;9.65;75.60;96783.63;2072508;28;20196;-64
2023/11/08 07:13:56;;;;;;;4.30;1.27;;;;;;;9.72;74.37;96786.81;2072731;28;21048;-64
2023/11/08 07:14:58;;;;;;;3.95;1.08;;;;;;;9.60;74.35;96799.44;2073174;28;20276;-64
2023/11/08 07:16:01;;;;;;;5.55;2.03;;;;;;;9.38;74.29;96804.59;2073091;28;20229;-64
2023/11/08 07:17:03;;;;;;;2.10;1.00;;;;;;;9.53;75.20;96794.50;2072973;28;20597;-65
2023/11/08 07:18:04;;;;;;;5.00;1.02;;;;;;;8.68;77.41;96805.38;2075395;28;20220;-65
2023/11/08 07:19:06;;;;;;;3.42;0.90;;;;;;;8.18;78.56;96807.00;2073643;28;20896;-65
2023/11/08 07:29:31;;;;;;;5.53;1.20;;;;;;;5.83;90.00;96806.50;2084986;28;20564;-64
2023/11/08 07:30:32;;;;;;;3.60;1.10;;;;;;;6.16;89.38;96813.56;2079868;28;20244;-63
2023/11/08 07:31:37;;;;;;;3.35;1.20;;;;;;;6.56;88.12;96822.06;2076303;28;20256;-64
2023/11/08 07:32:38;;;;;;;3.38;1.00;;;;;;;7.38;85.49;96818.09;2072665;28;20249;-64
2023/11/08 07:33:42;;;;;;;5.35;1.50;;;;;;;7.84;82.81;96808.06;2074524;28;20204;-65
2023/11/08 07:34:43;;;;;;;7.35;1.48;;;;;;;8.48;80.18;96818.19;2074129;28;20539;-64
2023/11/08 07:35:46;;;;;;;4.53;1.17;;;;;;;9.23;77.83;96821.66;2073830;28;20668;-64
2023/11/08 07:36:49;;;;;;;7.05;1.63;;;;;;;9.62;75.94;96808.06;2073441;28;20229;-64
2023/11/08 07:37:51;;;;;;;6.00;1.20;;;;;;;9.14;76.28;96815.03;2071584;28;20641;-64
2023/11/08 07:38:52;;;;;;;9.68;1.70;;;;;;;8.66;77.77;96819.28;2075385;28;20190;-64
2023/11/08 07:39:54;;;;;;;3.80;1.35;;;;;;;8.42;79.08;96818.34;2074079;28;20280;-65
2023/11/08 07:45:05;;;;;;;8.68;1.85;;;;;;;6.99;86.01;96824.38;2106178;27;20560;-64
2023/11/08 07:46:08;;;;;;;4.68;1.60;;;;;;;7.50;83.91;96822.06;2104932;27;20186;-64
2023/11/08 07:47:11;;;;;;;3.60;1.25;;;;;;;8.54;81.16;96817.09;2101718;28;20654;-64
2023/11/08 07:48:13;;;;;;;4.85;2.10;;;;;;;9.07;78.11;96818.75;2100127;28;20198;-64
2023/11/08 07:49:15;;;;;;;4.70;1.17;;;;;;;8.81;77.73;96820.53;2101307;28;20282;-64
2023/11/08 07:50:17;;;;;;;7.55;1.52;;;;;;;8.16;79.87;96814.84;2101304;28;20237;-64
2023/11/08 07:53:15;;;;;;;3.25;1.17;;;;;;;7.74;82.10;96812.69;2093092;27;21144;-64
2023/11/08 07:54:17;;;;;;;2.67;1.00;;;;;;;8.05;81.91;96811.75;2089918;28;20184;-64
2023/11/08 07:55:19;;;;;;;6.75;1.20;;;;;;;8.81;79.74;96815.31;2089771;28;20283;-64
2023/11/08 07:56:20;;;;;;;4.13;1.20;;;;;;;8.47;79.52;96810.44;2082281;28;20248;-64
2023/11/08 07:57:22;;;;;;;3.63;1.60;;;;;;;8.07;80.40;96815.13;2073637;28;20243;-65
2023/11/08 07:58:24;;;;;;;2.65;1.23;;;;;;;7.93;80.81;96819.94;2074141;28;20665;-64
2023/11/08 07:59:27;;;;;;;3.58;1.25;;;;;;;7.93;81.08;96820.75;2077253;28;20204;-64
2023/11/08 08:00:31;;;;;;;5.65;1.40;;;;;;;7.92;81.92;96820.81;2077538;28;20316;-64
2023/11/08 08:01:33;;;;;;;4.45;1.55;;;;;;;7.68;83.04;96818.06;2078913;28;20221;-64
2023/11/08 08:02:34;;;;;;;5.28;1.48;;;;;;;7.48;83.35;96821.28;2081499;28;20197;-64
2023/11/08 08:03:36;;;;;;;5.80;1.20;;;;;;;8.30;82.39;96811.81;2082524;28;20192;-64
2023/11/08 08:04:37;;;;;;;5.72;1.30;;;;;;;8.71;79.21;96813.94;2078289;28;20198;-64
2023/11/08 08:05:44;;;;;;;4.70;1.27;;;;;;;8.88;78.21;96821.16;2080782;28;20200;-64
2023/11/08 08:06:46;;;;;;;5.32;1.10;;;;;;;8.77;79.02;96813.72;2065292;28;20223;-65
2023/11/08 08:07:49;;;;;;;2.85;1.38;;;;;;;8.70;79.22;96811.38;2097763;28;20258;-64
2023/11/08 08:08:51;;;;;;;2.83;1.13;;;;;;;8.06;80.54;96821.22;2082712;28;20291;-64
2023/11/08 08:09:54;;;;;;;7.78;1.33;;;;;;;7.78;82.40;96818.66;2082204;28;20602;-64
2023/11/08 08:10:55;;;;;;;2.13;1.00;;;;;;;7.83;82.08;96815.03;2080198;28;20538;-64
2023/11/08 08:11:57;;;;;;;5.00;1.10;;;;;;;8.03;81.92;96821.34;2079657;28;20269;-64
2023/11/08 08:13:00;;;;;;;4.20;1.00;;;;;;;8.35;80.40;96816.84;2081172;28;20238;-64
2023/11/08 08:14:01;;;;;;;3.78;1.10;;;;;;;9.26;77.04;96815.50;2081968;28;20280;-64
2023/11/08 08:15:04;;;;;;;2.38;1.10;;;;;;;9.35;76.47;96806.47;2082421;28;20223;-64
2023/11/08 08:16:06;;;;;;;7.85;1.20;;;;;;;9.72;75.37;96807.69;2080809;28;20204;-64
2023/11/08 08:17:08;;;;;;;9.50;1.10;;;;;;;10.56;72.75;96810.44;2082575;28;20200;-64
2023/11/08 08:18:11;;;;;;;4.70;1.33;;;;;;;10.89;70.82;96807.31;2080444;28;20197;-64
2023/11/08 08:19:13;;;;;;;4.10;1.10;;;;;;;11.60;69.36;96804.16;2080789;28;20205;-64
2023/11/08 08:20:14;;;;;;;4.30;1.17;;;;;;;11.70;68.50;96799.34;2081136;28;20205;-64
2023/11/08 08:21:17;;;;;;;2.58;0.80;;;;;;;12.09;67.16;96807.09;2078809;28;20266;-64
2023/11/08 08:22:20;;;;;;;8.57;1.10;;;;;;;12.62;65.94;96803.69;2079604;28;20292;-64
2023/11/08 08:23:22;;;;;;;3.13;0.80;;;;;;;12.62;65.31;96808.91;2080320;28;20201;-64
2023/11/08 08:24:23;;;;;;;3.88;1.02;;;;;;;12.64;64.55;96809.69;2082383;28;20204;-64
2023/11/08 08:25:24;;;;;;;3.42;1.13;;;;;;;12.40;65.14;96803.00;2082262;28;20726;-64
2023/11/08 08:26:27;;;;;;;5.00;1.35;;;;;;;12.02;65.69;96800.44;2081600;28;20217;-64
2023/11/08 08:27:34;;;;;;;3.60;1.05;;;;;;;12.39;65.05;96800.44;2080669;28;20197;-64
2023/11/08 08:28:35;;;;;;;5.18;1.10;;;;;;;13.11;62.92;96800.31;2080226;28;20198;-64
2023/11/08 08:29:37;;;;;;;3.28;0.90;;;;;;;13.55;62.25;96803.22;2081963;28;20243;-64
2023/11/08 08:30:38;;;;;;;4.82;0.90;;;;;;;13.65;62.09;96803.56;2081496;28;20551;-64
2023/11/08 08:31:41;;;;;;;4.25;1.20;;;;;;;13.28;63.34;96800.28;2080312;28;20231;-64
2023/11/08 08:32:45;;;;;;;3.33;1.05;;;;;;;14.01;61.37;96799.00;2082378;28;20705;-65
2023/11/08 08:33:47;;;;;;;2.80;0.90;;;;;;;-145.49;100.00;55703.94;2082592;28;20231;-64
2023/11/08 08:34:48;;;;;;;5.82;1.30;;;;;;;13.19;62.04;96803.38;2078191;28;20636;-64
2023/11/08 08:35:50;;;;;;;4.68;1.08;;;;;;;11.83;65.53;96803.06;2078392;28;20198;-64
2023/11/08 08:36:52;;;;;;;3.67;0.82;;;;;;;10.98;68.51;96816.50;2080488;28;20221;-64
2023/11/08 08:37:54;;;;;;;6.38;1.13;;;;;;;11.54;67.73;96812.28;2081965;28;20197;-64
2023/11/08 08:38:55;;;;;;;2.88;0.90;;;;;;;11.09;68.47;96811.66;2078465;28;20197;-64
2023/11/08 08:39:57;;;;;;;3.17;0.90;;;;;;;10.39;70.73;96804.16;2079137;28;20204;-64
2023/11/08 08:40:58;;;;;;;3.33;1.08;;;;;;;10.16;71.82;96820.75;2077710;28;20278;-64
2023/11/08 08:42:01;;;;;;;4.30;1.02;;;;;;;10.76;70.54;96812.22;2081010;28;20200;-64
2023/11/08 08:43:05;;;;;;;7.20;1.20;;;;;;;11.07;69.38;96813.50;2082134;28;20208;-63
2023/11/08 08:44:07;;;;;;;5.65;1.00;;;;;;;10.74;69.74;96809.69;2081908;28;20327;-64
2023/11/08 08:45:09;;;;;;;5.32;1.23;;;;;;;9.70;72.96;96810.34;2081104;28;20270;-64
2023/11/08 08:46:11;;;;;;;3.30;1.00;;;;;;;10.77;70.99;96816.53;2080884;28;20240;-64
2023/11/08 08:47:12;;;;;;;2.22;0.90;;;;;;;11.51;69.03;96820.28;2083410;28;20410;-64
2023/11/08 08:48:15;;;;;;;4.50;1.00;;;;;;;11.21;69.39;96810.25;2079800;28;20576;-65
2023/11/08 08:49:16;;;;;;;3.22;1.30;;;;;;;11.55;67.96;96819.22;2080686;28;20224;-64
2023/11/08 08:50:21;;;;;;;3.08;1.00;;;;;;;11.77;67.30;96814.69;2081583;28;20197;-64
2023/11/08 08:51:25;;;;;;;7.13;1.15;;;;;;;12.00;66.40;96812.78;2079544;28;20339;-64
2023/11/08 08:52:27;;;;;;;4.78;1.10;;;;;;;11.73;66.57;96805.28;2082289;28;20273;-64
2023/11/08 08:53:28;;;;;;;2.85;0.95;;;;;;;12.03;67.13;96806.56;2081587;28;20219;-64
2023/11/08 08:54:30;;;;;;;2.30;0.85;;;;;;;12.53;65.09;96807.59;2079458;28;20197;-64
2023/11/08 08:55:34;;;;;;;3.72;1.10;;;;;;;12.20;65.36;96810.97;2079419;28;20818;-64
2023/11/08 08:56:36;;;;;;;3.05;0.93;;;;;;;12.48;65.28;96809.59;2079355;28;20304;-64
2023/11/08 08:57:41;;;;;;;2.05;1.00;;;;;;;12.22;64.88;96811.75;2079809;28;20200;-64
2023/11/08 08:58:42;;;;;;;5.55;1.17;;;;;;;12.84;64.09;96804.28;2082782;28;20193;-64
2023/11/08 08:59:44;;;;;;;3.58;0.85;;;;;;;12.71;63.68;96811.94;2081188;28;20624;-64
2023/11/08 09:00:45;;;;;;;3.15;0.82;;;;;;;12.66;63.73;96808.69;2077916;28;20549;-64
2023/11/08 09:01:47;;;;;;;2.65;0.70;;;;;;;12.64;63.59;96799.22;2078029;28;20237;-64
2023/11/08 09:02:49;;;;;;;4.05;1.00;;;;;;;12.72;64.18;96804.91;2081262;28;20197;-64
2023/11/08 09:03:52;;;;;;;4.05;1.23;;;;;;;12.39;63.88;96810.91;2078907;28;20224;-64
2023/11/08 09:04:53;;;;;;;2.42;0.90;;;;;;;12.31;64.70;96806.06;2074203;28;20206;-64
2023/11/08 09:05:55;;;;;;;2.75;0.80;;;;;;;11.46;66.68;96811.78;2076438;28;20512;-64
2023/11/08 09:06:57;;;;;;;2.80;0.90;;;;;;;11.58;66.80;96816.47;2063232;28;20270;-64
2023/11/08 09:08:00;;;;;;;3.47;1.10;;;;;;;12.24;65.90;96809.91;2091964;28;20203;-64
2023/11/08 09:09:02;;;;;;;3.15;1.00;;;;;;;13.01;63.26;96798.16;2074762;28;20198;-64
2023/11/08 09:10:05;;;;;;;2.05;0.75;;;;;;;13.29;61.84;96801.97;2072600;28;20932;-64
2023/11/08 09:11:07;;;;;;;5.38;0.80;;;;;;;12.91;62.72;96810.06;2073092;28;20201;-64
2023/11/08 09:12:08;;;;;;;2.30;0.80;;;;;;;13.34;62.08;96810.44;2074002;28;20645;-65
2023/11/08 09:13:10;;;;;;;6.68;1.33;;;;;;;12.92;62.35;96805.69;2074143;28;20246;-64
2023/11/08 09:14:12;;;;;;;4.75;1.27;;;;;;;12.62;63.40;96804.53;2075288;28;20200;-64
2023/11/08 09:15:13;;;;;;;2.58;1.05;;;;;;;11.95;66.09;96812.13;2074474;28;20190;-64
2023/11/08 09:16:16;;;;;;;9.48;1.30;;;;;;;12.88;64.13;96803.19;2075547;28;20204;-64
2023/11/08 09:17:19;;;;;;;3.08;1.00;;;;;;;12.63;64.18;96815.84;2076188;28;20244;-64
2023/11/08 09:18:21;;;;;;;2.15;0.90;;;;;;;11.49;66.79;96811.63;2072510;28;20251;-63
2023/11/08 09:19:22;;;;;;;4.05;1.20;;;;;;;11.79;66.67;96808.53;2073749;28;20189;-64
2023/11/08 09:20:24;;;;;;;4.07;0.80;;;;;;;12.58;64.88;96811.72;2076531;28;20619;-64
2023/11/08 09:21:25;;;;;;;2.97;1.05;;;;;;;11.84;65.09;96811.78;2073099;28;20308;-64
2023/11/08 09:22:27;;;;;;;2.30;0.80;;;;;;;11.40;66.96;96805.91;2076462;28;20206;-64
2023/11/08 09:23:30;;;;;;;6.47;1.45;;;;;;;12.25;66.30;96807.22;2072296;28;20216;-64
2023/11/08 09:24:32;;;;;;;2.40;1.10;;;;;;;13.00;63.28;96806.97;2073844;28;20210;-64
2023/11/08 09:25:34;;;;;;;1.92;0.75;;;;;;;13.07;62.55;96804.88;2077774;28;20232;-64
2023/11/08 09:26:36;;;;;;;4.18;1.20;;;;;;;12.93;63.19;96813.44;2075731;28;20225;-65
2023/11/08 09:27:38;;;;;;;4.68;1.10;;;;;;;11.96;65.02;96813.00;2076546;28;20554;-64
2023/11/08 09:28:40;;;;;;;2.95;1.08;;;;;;;11.38;67.55;96804.28;2076428;28;20198;-65
2023/11/08 09:29:41;;;;;;;2.03;1.00;;;;;;;10.70;69.35;96807.25;2074238;28;20251;-65
2023/11/08 09:30:43;;;;;;;2.20;0.98;;;;;;;11.30;68.81;96817.72;2073034;28;20251;-64
2023/11/08 09:31:47;;;;;;;3.33;0.90;;;;;;;10.84;69.56;96811.88;2071956;28;20237;-64
2023/11/08 09:32:48;;;;;;;5.93;0.90;;;;;;;11.04;69.42;96816.25;2075150;28;20293;-64
2023/11/08 09:33:50;;;;;;;5.97;0.90;;;;;;;11.07;68.97;96806.50;2075323;28;20210;-64
2023/11/08 09:34:55;;;;;;;2.47;1.02;;;;;;;11.19;68.80;96805.09;2076313;28;20208;-64
2023/11/08 09:35:57;;;;;;;2.95;0.85;;;;;;;10.74;69.57;96798.38;2076498;28;20198;-64
2023/11/08 09:37:00;;;;;;;2.22;0.90;;;;;;;11.10;70.23;96808.97;2044338;28;20252;-64
2023/11/08 09:38:01;;;;;;;5.43;1.30;;;;;;;10.69;70.94;96806.41;2072447;28;20201;-64
2023/11/08 09:39:03;;;;;;;2.47;0.75;;;;;;;9.97;72.18;96804.97;2074832;28;20284;-64
2023/11/08 09:40:09;;;;;;;3.33;1.20;;;;;;;9.28;74.57;96803.22;2076815;28;20312;-65
2023/11/08 09:41:10;;;;;;;4.20;0.98;;;;;;;9.03;75.96;96806.75;2076330;28;20284;-64
2023/11/08 09:42:14;;;;;;;3.03;1.25;;;;;;;8.83;76.71;96804.84;2076347;28;20228;-64
2023/11/08 09:43:20;;;;;;;4.28;1.15;;;;;;;8.48;77.66;96812.09;2075898;28;20267;-65
2023/11/08 09:44:25;;;;;;;1.85;1.00;;;;;;;8.39;78.53;96808.00;2074205;28;20223;-64
2023/11/08 09:45:31;;;;;;;5.53;1.10;;;;;;;8.37;78.81;96811.56;2076216;28;20201;-64
2023/11/08 09:46:34;;;;;;;1.50;0.70;;;;;;;8.41;79.46;96815.78;2074136;28;20225;-64
2023/11/08 09:47:37;;;;;;;3.42;0.90;;;;;;;8.28;78.94;96807.56;2075999;28;20205;-64
2023/11/08 09:48:39;;;;;;;2.03;0.80;;;;;;;8.19;79.72;96816.50;2075946;28;20192;-64
2023/11/08 09:49:42;;;;;;;4.53;1.20;;;;;;;8.21;80.57;96812.09;2073851;28;20255;-64
2023/11/08 09:50:46;;;;;;;2.15;0.80;;;;;;;8.20;80.19;96817.34;2074765;28;20406;-63
2023/11/08 09:51:47;;;;;;;4.15;1.05;;;;;;;8.26;79.96;96810.19;2071615;28;20229;-63
2023/11/08 09:52:50;;;;;;;2.22;0.90;;;;;;;8.32;80.64;96806.53;2072505;28;20265;-63
2023/11/08 09:53:52;;;;;;;2.78;1.10;;;;;;;8.42;80.96;96810.53;2075499;28;20205;-63
2023/11/08 09:54:54;;;;;;;2.80;1.00;;;;;;;8.39;80.01;96812.38;2077636;28;20197;-64
2023/11/08 09:55:58;;;;;;;2.05;1.05;;;;;;;8.37;80.48;96809.84;2075150;28;20216;-64
2023/11/08 09:57:01;;;;;;;10.55;1.30;;;;;;;8.43;80.80;96814.84;2075937;28;20287;-65
2023/11/08 09:58:06;;;;;;;5.38;1.25;;;;;;;8.45;81.32;96815.63;2076364;28;20377;-65
2023/11/08 09:59:07;;;;;;;2.72;1.10;;;;;;;8.39;81.41;96810.63;2075997;28;20288;-64
2023/11/08 10:00:10;;;;;;;4.00;1.20;;;;;;;8.37;82.06;96809.84;2074014;28;20288;-64
2023/11/08 10:01:18;;;;;;;4.60;1.15;;;;;;;8.27;81.92;96808.44;2072462;28;20193;-64
2023/11/08 10:02:20;;;;;;;8.73;1.33;;;;;;;8.31;82.27;96803.06;2076188;28;20364;-64
2023/11/08 10:03:25;;;;;;;2.33;0.95;;;;;;;8.37;82.04;96808.97;2072067;28;20209;-64
2023/11/08 10:04:26;;;;;;;5.47;1.20;;;;;;;8.36;82.09;96800.31;2076499;28;20189;-64
2023/11/08 10:05:37;;;;;;;3.95;1.00;;;;;;;8.25;81.83;96798.09;2075218;28;20197;-65
2023/11/08 10:06:39;;;;;;;10.43;1.50;;;;;;;8.24;82.50;96795.53;2074542;28;20224;-65
2023/11/08 10:07:41;;;;;;;10.82;2.20;;;;;;;8.30;82.03;96795.31;2076089;28;20201;-64
2023/11/08 10:08:46;;;;;;;5.22;1.30;;;;;;;8.34;81.46;96800.38;2076475;28;20250;-63
2023/11/08 10:09:47;;;;;;;3.95;1.10;;;;;;;8.34;81.34;96795.19;2075494;28;20201;-64
2023/11/08 10:10:51;;;;;;;6.03;1.38;;;;;;;8.52;81.95;96798.09;2076757;28;20197;-65
2023/11/08 10:11:52;;;;;;;5.55;1.55;;;;;;;8.65;81.15;96801.97;2075658;28;20295;-64
2023/11/08 10:13:06;;;;;;;3.90;0.85;;;;;;;8.74;79.88;96799.97;2075857;28;20284;-64
2023/11/08 10:14:08;;;;;;;4.22;1.15;;;;;;;9.00;79.97;96796.41;2074832;28;20298;-64
2023/11/08 10:15:11;;;;;;;3.28;0.98;;;;;;;9.92;77.31;96797.31;2074066;28;20193;-64
2023/11/08 10:16:13;;;;;;;3.25;1.38;;;;;;;10.39;73.80;96792.88;2060527;28;20244;-63
2023/11/08 10:17:17;;;;;;;5.72;1.10;;;;;;;10.14;74.44;96788.63;2077230;28;20190;-64
2023/11/08 10:18:38;;;;;;;1.73;0.60;;;;;;;11.69;70.03;96788.00;2076100;28;20287;-64
2023/11/08 10:19:59;;;;;;;2.42;1.00;;;;;;;11.86;69.07;96783.75;2076130;28;20293;-64
2023/11/08 10:21:06;;;;;;;1.52;0.80;;;;;;;10.55;69.96;96787.84;2075105;28;20202;-64
2023/11/08 10:22:21;;;;;;;2.00;0.80;;;;;;;10.05;72.33;96774.19;2075826;28;20221;-64
2023/11/08 10:23:25;;;;;;;2.05;0.80;;;;;;;11.54;68.99;96787.00;2077416;28;20225;-69
2023/11/08 10:24:27;;;;;;;7.60;0.90;;;;;;;11.51;67.50;96791.50;2077612;28;20717;-69
2023/11/08 10:25:29;;;;;;;2.58;0.80;;;;;;;10.99;68.99;96786.88;2075309;28;20706;-70
2023/11/08 10:26:33;;;;;;;2.88;0.70;;;;;;;10.42;69.71;96783.16;2074205;28;20283;-70
2023/11/08 10:27:35;;;;;;;1.50;0.70;;;;;;;9.95;72.31;96781.56;2072229;28;20208;-69
2023/11/08 10:29:01;;;;;;;4.25;1.00;;;;;;;9.48;72.17;96781.63;2072243;28;20289;-69
2023/11/08 10:30:14;;;;;;;1.67;0.80;;;;;;;9.57;71.44;96776.09;2076297;28;20224;-69
2023/11/08 10:31:37;;;;;;;3.65;1.00;;;;;;;9.71;70.45;96779.91;2071566;28;20209;-69
2023/11/08 10:32:39;;;;;;;1.50;0.60;;;;;;;9.59;68.56;96783.84;2076549;28;20192;-69
2023/11/08 10:33:56;;;;;;;1.92;0.60;;;;;;;11.27;65.79;96776.88;2074462;28;20260;-69
2023/11/08 10:35:11;;;;;;;2.22;0.70;;;;;;;13.10;60.25;96760.13;2078251;28;20319;-70
2023/11/08 10:36:22;;;;;;;1.20;0.60;;;;;;;13.54;58.65;96764.78;2071085;28;20198;-69
2023/11/08 10:37:25;;;;;;;1.60;0.70;;;;;;;-145.49;100.00;55703.94;2072073;28;20189;-70
2023/11/08 10:38:27;;;;;;;2.40;0.80;;;;;;;-145.49;100.00;55703.94;2073470;28;20201;-70
2023/11/08 10:39:29;;;;;;;2.75;1.08;;;;;;;-145.49;100.00;55703.94;2076180;28;20198;-70
2023/11/08 10:40:32;;;;;;;1.55;0.90;;;;;;;-145.49;100.00;55703.94;2076299;28;20664;-70
2023/11/08 10:41:35;;;;;;;1.55;0.60;;;;;;;-145.49;100.00;55703.94;2074285;28;20371;-69
2023/11/08 10:42:37;;;;;;;1.58;0.70;;;;;;;-145.49;100.00;55703.94;2074794;28;20231;-70
2023/11/08 10:43:38;;;;;;;3.95;0.70;;;;;;;13.54;58.65;96764.78;2075786;28;20284;-70
2023/11/08 10:44:39;;;;;;;1.10;0.50;;;;;;;14.07;55.22;96779.41;2075867;28;20277;-70
2023/11/08 10:45:41;;;;;;;2.08;0.60;;;;;;;12.84;57.04;96779.88;2075977;28;20201;-69
2023/11/08 10:46:43;;;;;;;1.00;0.50;;;;;;;11.47;59.74;96772.50;2071584;28;20312;-69
2023/11/08 10:47:46;;;;;;;1.63;0.60;;;;;;;11.16;61.89;96770.41;2074524;28;20205;-69
2023/11/08 10:48:48;;;;;;;2.78;0.70;;;;;;;11.35;61.85;96765.19;2076104;28;20705;-69
2023/11/08 10:49:51;;;;;;;1.30;0.60;;;;;;;11.46;61.72;96765.56;2074065;28;20251;-70
2023/11/08 10:50:54;;;;;;;1.50;0.60;;;;;;;11.08;61.80;96766.41;2089546;28;20726;-69
2023/11/08 10:51:57;;;;;;;1.20;0.60;;;;;;;10.66;63.20;96769.13;2086104;28;20232;-70
2023/11/08 10:52:59;;;;;;;1.85;0.70;;;;;;;10.31;64.08;96761.84;2072863;28;21013;-69
2023/11/08 10:54:00;;;;;;;3.90;0.68;;;;;;;10.22;64.39;96757.00;2075315;28;20239;-69
2023/11/08 10:55:04;;;;;;;1.20;0.60;;;;;;;10.11;64.75;96753.06;2074429;28;20210;-69
2023/11/08 10:56:08;;;;;;;1.20;0.60;;;;;;;10.39;64.30;96759.78;2074432;28;20200;-69
2023/11/08 10:57:13;;;;;;;1.75;0.50;;;;;;;10.34;64.11;96761.72;2052604;28;20304;-69
2023/11/08 10:58:16;;;;;;;1.25;0.60;;;;;;;9.97;65.09;96751.03;2074336;28;20226;-69
2023/11/08 10:59:19;;;;;;;1.10;0.55;;;;;;;9.71;65.53;96749.44;2076266;28;20399;-69
2023/11/08 11:00:26;;;;;;;1.70;0.50;;;;;;;9.67;66.44;96749.66;2075302;28;20201;-69
2023/11/08 11:01:32;;;;;;;1.90;0.60;;;;;;;9.65;67.03;96744.50;2074631;28;20344;-69
2023/11/08 11:02:41;;;;;;;1.40;0.65;;;;;;;9.62;66.28;96749.81;2071380;28;20196;-69
2023/11/08 11:03:43;;;;;;;1.30;0.60;;;;;;;9.46;66.34;96752.19;2072636;28;20293;-69
2023/11/08 11:04:49;;;;;;;1.20;0.50;;;;;;;9.46;67.33;96752.19;2074733;28;20252;-69
2023/11/08 11:05:53;;;;;;;1.40;0.60;;;;;;;9.35;67.79;96744.78;2074617;28;20197;-69
2023/11/08 11:06:55;;;;;;;1.95;0.80;;;;;;;9.31;67.46;96738.81;2070938;28;20236;-69
2023/11/08 11:08:00;;;;;;;1.55;0.73;;;;;;;9.35;67.17;96739.56;2075187;28;20211;-69
2023/11/08 11:09:13;;;;;;;3.05;0.80;;;;;;;9.27;67.80;96736.41;2075147;28;20285;-69
2023/11/08 11:10:15;;;;;;;1.65;0.70;;;;;;;9.34;68.32;96745.66;2073470;28;20710;-68
2023/11/08 11:11:17;;;;;;;1.95;0.70;;;;;;;9.26;67.64;96734.72;2071345;28;20193;-69
2023/11/08 11:12:39;;;;;;;1.20;0.60;;;;;;;9.19;67.49;96739.28;2074443;28;20193;-69
2023/11/08 11:13:50;;;;;;;1.90;0.70;;;;;;;9.11;67.40;96741.34;2075185;28;20231;-69
2023/11/08 11:14:54;;;;;;;1.50;0.65;;;;;;;9.08;67.58;96738.84;2075026;28;20634;-69
2023/11/08 11:16:06;;;;;;;2.22;0.70;;;;;;;9.12;68.28;96730.84;2075287;28;20197;-69
2023/11/08 11:17:29;;;;;;;1.35;0.70;;;;;;;9.27;68.29;96737.25;2072335;28;20212;-69
2023/11/08 11:18:38;;;;;;;2.20;0.75;;;;;;;9.26;67.57;96730.34;2073636;28;20198;-69
2023/11/08 11:19:43;;;;;;;1.30;0.63;;;;;;;9.26;67.02;96726.88;2075921;28;20197;-69
2023/11/08 11:20:53;;;;;;;5.05;1.00;;;;;;;9.91;66.40;96730.41;2075268;28;20798;-69
2023/11/08 11:21:57;;;;;;;3.70;1.15;;;;;;;11.49;62.20;96734.06;2074730;28;20262;-69
2023/11/08 11:22:59;;;;;;;1.83;0.82;;;;;;;11.97;60.43;96726.56;2076354;28;20716;-64
2023/11/08 11:24:00;;;;;;;1.70;0.90;;;;;;;12.39;59.49;96722.72;2075068;28;20202;-64
2023/11/08 11:25:03;;;;;;;1.50;0.73;;;;;;;12.87;58.46;96733.38;2074445;28;20280;-64
2023/11/08 11:26:06;;;;;;;2.20;0.80;;;;;;;12.99;58.25;96731.88;2072678;28;20284;-65
2023/11/08 11:27:33;;;;;;;1.10;0.50;;;;;;;12.06;59.63;96731.34;2067509;28;20300;-63
2023/11/08 11:28:52;;;;;;;1.77;0.63;;;;;;;11.56;61.03;96737.22;2075746;28;20201;-64
2023/11/08 11:30:14;;;;;;;1.23;0.50;;;;;;;12.98;57.35;96727.56;2074678;28;20198;-64
2023/11/08 11:31:35;;;;;;;1.88;0.60;;;;;;;13.37;57.02;96718.50;2063247;28;20216;-68
2023/11/08 11:32:40;;;;;;;4.95;0.63;;;;;;;13.31;57.49;96724.06;2074031;28;20190;-69
2023/11/08 11:33:42;;;;;;;1.63;0.60;;;;;;;13.50;56.43;96721.31;2075465;28;20198;-70
2023/11/08 11:34:44;;;;;;;1.30;0.70;;;;;;;13.92;56.92;96720.78;2076289;28;20232;-70
2023/11/08 11:35:48;;;;;;;1.30;0.50;;;;;;;14.47;55.19;96728.06;2071810;28;20255;-69
2023/11/08 11:37:08;;;;;;;6.13;0.60;;;;;;;14.13;54.40;96729.19;2055529;28;20312;-70
2023/11/08 11:38:11;;;;;;;1.73;0.70;;;;;;;12.27;58.04;96718.13;2074538;28;20192;-69
2023/11/08 11:39:19;;;;;;;1.20;0.60;;;;;;;12.11;59.75;96730.28;2074162;28;20204;-69
2023/11/08 11:40:20;;;;;;;1.52;0.60;;;;;;;11.64;61.02;96715.94;2075135;28;20541;-69
2023/11/08 11:41:23;;;;;;;2.60;0.88;;;;;;;11.19;63.26;96721.47;2061953;28;20281;-69
2023/11/08 11:42:28;;;;;;;2.35;0.70;;;;;;;11.97;62.39;96716.09;2072576;28;20649;-69
2023/11/08 11:43:30;;;;;;;1.60;0.60;;;;;;;13.16;59.29;96714.41;2073990;28;20616;-70
2023/11/08 11:44:50;;;;;;;1.45;0.68;;;;;;;13.49;58.39;96711.75;2077132;28;20619;-70
2023/11/08 11:45:52;;;;;;;1.10;0.50;;;;;;;12.78;58.81;96714.66;2072360;28;20201;-69
2023/11/08 11:46:55;;;;;;;1.20;0.60;;;;;;;11.58;61.29;96717.91;2076411;28;20275;-70
2023/11/08 11:47:57;;;;;;;1.60;0.50;;;;;;;11.36;62.41;96717.22;2076340;28;20201;-69
2023/11/08 11:49:11;;;;;;;2.47;0.80;;;;;;;12.68;60.28;96715.13;2076610;28;20649;-64
2023/11/08 11:50:13;;;;;;;4.72;0.63;;;;;;;13.46;58.37;96711.91;2076381;28;20205;-64
2023/11/08 11:51:15;;;;;;;1.10;0.52;;;;;;;13.66;57.77;96717.81;2074696;28;20221;-64
2023/11/08 11:52:21;;;;;;;1.20;0.60;;;;;;;14.19;57.25;96723.56;2070498;28;20774;-63
2023/11/08 11:53:25;;;;;;;1.20;0.60;;;;;;;14.01;56.74;96722.88;2074900;28;20811;-65
2023/11/08 11:54:26;;;;;;;1.58;0.60;;;;;;;14.10;57.25;96721.50;2074845;28;20197;-65
2023/11/08 11:55:30;;;;;;;1.30;0.60;;;;;;;13.73;56.72;96708.69;2074233;28;20205;-65
2023/11/08 11:56:32;;;;;;;2.08;0.65;;;;;;;13.20;57.47;96708.06;2070123;28;20284;-65
2023/11/08 11:57:34;;;;;;;1.60;0.70;;;;;;;13.03;58.22;96701.94;2073621;28;20211;-64
2023/11/08 11:58:36;;;;;;;1.55;0.60;;;;;;;13.28;58.25;96718.13;2074844;28;20200;-64
2023/11/08 11:59:38;;;;;;;1.98;0.70;;;;;;;13.51;58.42;96712.50;2076210;28;20201;-64
2023/11/08 12:00:39;;;;;;;1.40;0.60;;;;;;;13.42;58.07;96704.28;2075115;28;20201;-65
2023/11/08 12:01:41;;;;;;;1.58;0.63;;;;;;;13.35;57.90;96706.38;2071801;28;20590;-65
2023/11/08 12:02:42;;;;;;;1.65;0.60;;;;;;;13.53;58.08;96699.31;2072215;28;20254;-64
2023/11/08 12:03:44;;;;;;;1.13;0.52;;;;;;;13.07;59.07;96698.22;2073585;28;20208;-64
2023/11/08 12:04:48;;;;;;;1.90;0.75;;;;;;;13.51;58.80;96688.03;2074472;28;20202;-64
2023/11/08 12:05:55;;;;;;;1.65;0.70;;;;;;;13.57;58.62;96699.97;2073797;28;20229;-64
2023/11/08 12:06:56;;;;;;;1.30;0.60;;;;;;;12.99;58.99;96696.94;2073325;28;20225;-65
2023/11/08 12:07:58;;;;;;;6.15;0.80;;;;;;;12.60;60.13;96695.53;2072328;28;20229;-64
2023/11/08 12:09:00;;;;;;;1.75;0.70;;;;;;;12.36;60.76;96699.31;2073414;28;20198;-64